createdAt,value
2019-02-11T00:01:42.435Z,94458.74
2019-02-11T00:04:31.723Z,94452.27
2019-02-11T00:07:20.506Z,94483.05
2019-02-11T00:10:09.240Z,94484.36
2019-02-11T00:12:57.681Z,94477.61
2019-02-11T00:15:46.120Z,94487.48
2019-02-11T00:18:34.596Z,94476.73
2019-02-11T00:21:23.326Z,94482.37
2019-02-11T00:24:13.771Z,94478.17
2019-02-11T00:27:01.674Z,94486.03
2019-02-11T00:29:50.242Z,94478.28
2019-02-11T00:32:39.070Z,94490.86
2019-02-11T00:35:28.260Z,94479.66
2019-02-11T00:38:17.129Z,94487.39
2019-02-11T00:41:05.959Z,94504.50
2019-02-11T00:43:54.600Z,94496.77
2019-02-11T00:46:43.466Z,94502.41
2019-02-11T00:49:32.520Z,94499.89
2019-02-11T00:52:21.494Z,94511.96
2019-02-11T00:55:10.362Z,94528.39
2019-02-11T00:57:59.180Z,94521.53
2019-02-11T01:00:48.079Z,94523.71
2019-02-11T01:03:36.588Z,94504.00
2019-02-11T01:06:24.893Z,94512.09
2019-02-11T01:09:13.363Z,94530.86
2019-02-11T01:12:01.921Z,94523.94
2019-02-11T01:14:50.721Z,94528.63
2019-02-11T01:17:40.494Z,94536.42
2019-02-11T01:20:29.289Z,94537.38
2019-02-11T01:23:18.122Z,94539.59
2019-02-11T01:26:06.774Z,94553.27
2019-02-11T01:28:55.552Z,94536.20
2019-02-11T01:31:44.112Z,94548.64
2019-02-11T01:34:32.840Z,94547.75
2019-02-11T01:37:21.340Z,94548.09
2019-02-11T01:40:11.830Z,94541.18
2019-02-11T01:43:00.607Z,94548.98
2019-02-11T01:45:49.100Z,94551.67
2019-02-11T01:48:37.747Z,94552.43
2019-02-11T01:51:26.247Z,94563.40
2019-02-11T01:54:14.975Z,94563.83
2019-02-11T01:57:03.809Z,94564.70
2019-02-11T01:59:53.414Z,94575.07
2019-02-11T02:02:41.926Z,94577.66
2019-02-11T02:05:32.639Z,94572.38
2019-02-11T02:08:21.481Z,94567.58
2019-02-11T02:11:10.327Z,94573.42
2019-02-11T02:13:58.769Z,94566.22
2019-02-11T02:16:47.211Z,94571.73
2019-02-11T02:19:35.758Z,94573.91
2019-02-11T02:22:24.063Z,94568.05
2019-02-11T02:25:12.465Z,94586.21
2019-02-11T02:28:01.051Z,94595.31
2019-02-11T02:30:49.280Z,94591.91
2019-02-11T02:33:38.317Z,94588.14
2019-02-11T02:36:26.887Z,94604.97
2019-02-11T02:39:15.654Z,94608.53
2019-02-11T02:42:04.918Z,94619.56
2019-02-11T02:44:53.798Z,94617.34
2019-02-11T02:47:42.372Z,94618.69
2019-02-11T02:50:31.004Z,94630.04
2019-02-11T02:53:19.460Z,94618.66
2019-02-11T02:56:08.303Z,94622.88
2019-02-11T02:58:57.573Z,94623.86
2019-02-11T03:01:46.325Z,94623.97
2019-02-11T03:04:35.091Z,94622.36
2019-02-11T03:07:24.319Z,94630.30
2019-02-11T03:10:16.292Z,94620.95
2019-02-11T03:13:04.745Z,94629.38
2019-02-11T03:15:53.994Z,94612.81
2019-02-11T03:18:42.858Z,94637.63
2019-02-11T03:21:31.914Z,94639.75
2019-02-11T03:24:20.057Z,94645.85
2019-02-11T03:27:08.733Z,94666.45
2019-02-11T03:29:57.565Z,94661.00
2019-02-11T03:32:46.395Z,94675.61
2019-02-11T03:35:34.521Z,94667.02
2019-02-11T03:38:23.333Z,94668.19
2019-02-11T03:41:11.745Z,94657.48
2019-02-11T03:44:00.321Z,94668.94
2019-02-11T03:46:48.766Z,94651.25
2019-02-11T03:49:37.198Z,94653.41
2019-02-11T03:52:25.519Z,94649.42
2019-02-11T03:55:14.215Z,94658.77
2019-02-11T03:58:03.076Z,94660.09
2019-02-11T04:00:51.758Z,94663.96
2019-02-11T04:03:40.605Z,94676.84
2019-02-11T04:06:29.463Z,94680.83
2019-02-11T04:09:18.282Z,94685.52
2019-02-11T04:12:07.363Z,94708.78
2019-02-11T04:14:56.367Z,94706.16
2019-02-11T04:17:45.293Z,94701.89
2019-02-11T04:20:33.743Z,94706.63
2019-02-11T04:23:22.717Z,94719.49
2019-02-11T04:26:11.740Z,94715.14
2019-02-11T04:29:00.787Z,94728.44
2019-02-11T04:31:49.301Z,94747.75
2019-02-11T04:34:38.273Z,94742.14
2019-02-11T04:37:27.411Z,94744.34
2019-02-11T04:40:16.622Z,94755.02
2019-02-11T04:43:05.663Z,94750.74
2019-02-11T04:45:54.081Z,94759.23
2019-02-11T04:48:43.095Z,94763.20
2019-02-11T04:51:31.995Z,94758.05
2019-02-11T04:54:20.638Z,94758.84
2019-02-11T04:57:09.130Z,94774.34
2019-02-11T04:59:58.061Z,94772.67
2019-02-11T05:02:46.946Z,94779.94
2019-02-11T05:05:35.407Z,94775.66
2019-02-11T05:08:24.538Z,94787.18
2019-02-11T05:11:13.203Z,94789.76
2019-02-11T05:14:02.241Z,94778.66
2019-02-11T05:16:50.844Z,94798.00
2019-02-11T05:19:39.065Z,94794.11
2019-02-11T05:22:28.296Z,94790.24
2019-02-11T05:25:17.262Z,94802.25
2019-02-11T05:28:06.018Z,94805.34
2019-02-11T05:30:54.686Z,94803.67
2019-02-11T05:33:43.406Z,94809.34
2019-02-11T05:36:32.407Z,94821.28
2019-02-11T05:39:21.674Z,94824.31
2019-02-11T05:42:09.701Z,94848.41
2019-02-11T05:44:58.492Z,94848.44
2019-02-11T05:47:46.982Z,94859.61
2019-02-11T05:50:35.859Z,94859.30
2019-02-11T05:53:24.595Z,94856.30
2019-02-11T05:56:13.374Z,94856.30
2019-02-11T05:59:01.956Z,94856.80
2019-02-11T06:01:50.352Z,94858.20
2019-02-11T06:04:39.059Z,94875.78
2019-02-11T06:07:27.402Z,94878.05
2019-02-11T06:10:16.030Z,94878.61
2019-02-11T06:13:05.133Z,94895.45
2019-02-11T06:15:53.703Z,94898.86
2019-02-11T06:18:41.922Z,94904.89
2019-02-11T06:21:30.592Z,94918.63
2019-02-11T06:24:19.208Z,94921.66
2019-02-11T06:27:08.344Z,94938.78
2019-02-11T06:29:57.318Z,94937.52
2019-02-11T06:32:46.006Z,94943.92
2019-02-11T06:35:34.481Z,94950.77
2019-02-11T06:38:22.560Z,94947.81
2019-02-11T06:41:10.656Z,94953.81
2019-02-11T06:43:59.163Z,94958.48
2019-02-11T06:46:47.559Z,94966.64
2019-02-11T06:49:35.995Z,94985.08
2019-02-11T06:52:24.148Z,94990.62
2019-02-11T06:55:12.968Z,94992.81
2019-02-11T06:58:01.860Z,95000.07
2019-02-11T07:00:50.193Z,94999.21
2019-02-11T07:03:38.950Z,95018.08
2019-02-11T07:06:27.911Z,95033.06
2019-02-11T07:09:16.250Z,95042.48
2019-02-11T07:12:05.120Z,95034.80
2019-02-11T07:14:54.086Z,95046.78
2019-02-11T07:17:42.103Z,95055.77
2019-02-11T07:20:30.210Z,95063.05
2019-02-11T07:23:19.043Z,95078.05
2019-02-11T07:26:07.820Z,95084.47
2019-02-11T07:28:56.422Z,95093.86
2019-02-11T07:31:44.922Z,95096.87
2019-02-11T07:34:33.988Z,95100.29
2019-02-11T07:37:22.580Z,95111.44
2019-02-11T07:40:11.570Z,95106.73
2019-02-11T07:43:19.301Z,95114.00
2019-02-11T07:46:12.215Z,95124.28
2019-02-11T07:49:00.992Z,95133.27
2019-02-11T07:51:49.666Z,95133.70
2019-02-11T07:54:38.340Z,95140.55
2019-02-11T07:57:27.104Z,95134.98
2019-02-11T08:00:16.089Z,95143.10
2019-02-11T08:03:04.628Z,95143.55
2019-02-11T08:05:52.753Z,95155.95
2019-02-11T08:08:41.483Z,95171.81
2019-02-11T08:11:30.608Z,95162.80
2019-02-11T08:14:19.973Z,95186.35
2019-02-11T08:17:08.542Z,95169.23
2019-02-11T08:19:56.936Z,95179.52
2019-02-11T08:22:45.779Z,95169.66
2019-02-11T08:25:34.533Z,95182.94
2019-02-11T08:28:23.801Z,95190.22
2019-02-11T08:31:12.673Z,95203.91
2019-02-11T08:34:01.139Z,95207.77
2019-02-11T08:36:49.850Z,95212.46
2019-02-11T08:39:38.448Z,95216.34
2019-02-11T08:42:27.657Z,95239.02
2019-02-11T08:45:16.779Z,95229.59
2019-02-11T08:48:05.455Z,95233.02
2019-02-11T08:50:54.521Z,95243.30
2019-02-11T08:53:43.219Z,95248.42
2019-02-11T08:56:32.147Z,95261.70
2019-02-11T08:59:21.074Z,95267.27
2019-02-11T09:02:09.461Z,95266.83
2019-02-11T09:04:57.800Z,95280.97
2019-02-11T09:07:46.437Z,95292.89
2019-02-11T09:10:35.494Z,95300.14
2019-02-11T09:13:24.545Z,95310.42
2019-02-11T09:16:13.114Z,95315.52
2019-02-11T09:19:02.064Z,95320.23
2019-02-11T09:21:51.027Z,95326.70
2019-02-11T09:24:39.898Z,95325.47
2019-02-11T09:27:28.662Z,95332.30
2019-02-11T09:30:17.305Z,95339.94
2019-02-11T09:33:05.645Z,95334.38
2019-02-11T09:35:54.617Z,95341.73
2019-02-11T09:38:43.202Z,95339.60
2019-02-11T09:41:32.321Z,95346.88
2019-02-11T09:44:20.630Z,95348.62
2019-02-11T09:47:09.012Z,95356.80
2019-02-11T09:50:13.056Z,95355.48
2019-02-11T09:53:01.849Z,95363.18
2019-02-11T09:55:51.032Z,95366.16
2019-02-11T09:58:40.107Z,95376.45
2019-02-11T10:01:28.865Z,95370.43
2019-02-11T10:04:17.111Z,95385.04
2019-02-11T10:07:06.278Z,95401.23
2019-02-11T10:09:54.711Z,95390.53
2019-02-11T10:12:43.886Z,95387.16
2019-02-11T10:15:32.303Z,95411.56
2019-02-11T10:18:21.407Z,95414.14
2019-02-11T10:21:10.059Z,95421.47
2019-02-11T10:23:58.326Z,95430.48
2019-02-11T10:26:47.196Z,95434.34
2019-02-11T10:29:36.185Z,95438.63
2019-02-11T10:32:25.027Z,95447.60
2019-02-11T10:35:14.610Z,95451.42
2019-02-11T10:38:04.198Z,95459.59
2019-02-11T10:40:52.929Z,95458.30
2019-02-11T10:43:41.653Z,95464.34
2019-02-11T10:46:30.315Z,95460.94
2019-02-11T10:49:18.919Z,95461.78
2019-02-11T10:52:07.869Z,95471.19
2019-02-11T10:54:56.763Z,95473.77
2019-02-11T10:57:45.638Z,95477.20
2019-02-11T11:00:35.229Z,95475.03
2019-02-11T11:03:23.917Z,95486.63
2019-02-11T11:06:12.925Z,95492.66
2019-02-11T11:09:01.215Z,95491.39
2019-02-11T11:11:50.022Z,95496.08
2019-02-11T11:14:38.478Z,95502.06
2019-02-11T11:17:27.330Z,95503.34
2019-02-11T11:20:17.078Z,95507.61
2019-02-11T11:23:06.114Z,95513.61
2019-02-11T11:25:54.504Z,95524.78
2019-02-11T11:28:42.863Z,95537.67
2019-02-11T11:31:31.774Z,95531.23
2019-02-11T11:34:20.782Z,95540.25
2019-02-11T11:37:10.083Z,95533.43
2019-02-11T11:39:58.197Z,95546.70
2019-02-11T11:42:46.936Z,95542.77
2019-02-11T11:45:36.134Z,95557.35
2019-02-11T11:48:24.830Z,95549.59
2019-02-11T11:51:13.176Z,95553.87
2019-02-11T11:54:01.774Z,95569.80
2019-02-11T11:56:50.541Z,95571.91
2019-02-11T11:59:39.577Z,95569.35
2019-02-11T12:02:28.449Z,95580.06
2019-02-11T12:05:17.462Z,95583.43
2019-02-11T12:08:05.597Z,95584.76
2019-02-11T12:10:54.155Z,95589.44
2019-02-11T12:13:43.185Z,95599.77
2019-02-11T12:16:31.743Z,95599.70
2019-02-11T12:19:21.095Z,95608.23
2019-02-11T12:22:12.781Z,95614.66
2019-02-11T12:24:59.853Z,95616.39
2019-02-11T12:27:47.980Z,95616.84
2019-02-11T12:30:36.824Z,95627.51
2019-02-11T12:33:25.296Z,95636.97
2019-02-11T12:36:13.940Z,95635.66
2019-02-11T12:39:02.964Z,95636.60
2019-02-11T12:41:51.858Z,95633.65
2019-02-11T12:44:40.662Z,95639.25
2019-02-11T12:47:29.804Z,95641.42
2019-02-11T12:50:18.815Z,95650.76
2019-02-11T12:53:07.835Z,95660.12
2019-02-11T12:55:56.062Z,95656.28
2019-02-11T12:58:45.084Z,95667.83
2019-02-11T13:01:33.889Z,95672.56
2019-02-11T13:04:22.558Z,95676.00
2019-02-11T13:07:11.359Z,95682.45
2019-02-11T13:10:00.075Z,95689.31
2019-02-11T13:12:48.725Z,95698.75
2019-02-11T13:15:58.810Z,95696.10
2019-02-11T13:18:27.486Z,95698.62
2019-02-11T13:21:16.605Z,95706.34
2019-02-11T13:24:05.366Z,95705.48
2019-02-11T13:26:54.601Z,95713.61
2019-02-11T13:29:43.342Z,95707.21
2019-02-11T13:32:32.722Z,95709.37
2019-02-11T13:35:20.789Z,95714.94
2019-02-11T13:38:09.457Z,95713.63
2019-02-11T13:40:58.299Z,95725.55
2019-02-11T13:43:56.381Z,95722.57
2019-02-11T13:46:45.147Z,95727.28
2019-02-11T13:49:33.847Z,95737.12
2019-02-11T13:52:22.743Z,95738.05
2019-02-11T13:55:11.483Z,95740.64
2019-02-11T13:58:00.085Z,95744.61
2019-02-11T14:00:50.457Z,95745.02
2019-02-11T14:03:39.726Z,95749.72
2019-02-11T14:06:28.002Z,95754.08
2019-02-11T14:09:16.395Z,95763.52
2019-02-11T14:12:05.238Z,95766.92
2019-02-11T14:14:53.252Z,95781.48
2019-02-11T14:17:41.672Z,95780.22
2019-02-11T14:20:30.959Z,95790.12
2019-02-11T14:23:19.841Z,95790.97
2019-02-11T14:26:08.255Z,95792.75
2019-02-11T14:28:57.095Z,95783.77
2019-02-11T14:31:46.004Z,95792.01
2019-02-11T14:34:34.590Z,95795.50
2019-02-11T14:37:23.183Z,95799.85
2019-02-11T14:40:11.883Z,95809.34
2019-02-11T14:43:00.898Z,95811.45
2019-02-11T14:45:50.016Z,95818.73
2019-02-11T14:48:38.933Z,95824.32
2019-02-11T14:51:28.006Z,95830.34
2019-02-11T14:54:16.511Z,95829.48
2019-02-11T14:57:05.392Z,95839.80
2019-02-11T14:59:54.248Z,95839.39
2019-02-11T15:02:42.796Z,95846.67
2019-02-11T15:05:31.630Z,95851.80
2019-02-11T15:08:20.904Z,95866.38
2019-02-11T15:11:09.686Z,95873.67
2019-02-11T15:13:58.410Z,95871.59
2019-02-11T15:16:47.556Z,95884.91
2019-02-11T15:19:36.418Z,95884.89
2019-02-11T15:22:25.138Z,95887.05
2019-02-11T15:25:15.051Z,95882.34
2019-02-11T15:28:03.776Z,95882.75
2019-02-11T15:30:53.042Z,95888.78
2019-02-11T15:33:41.699Z,95897.75
2019-02-11T15:36:30.408Z,95893.08
2019-02-11T15:39:19.865Z,95902.55
2019-02-11T15:42:08.036Z,95904.68
2019-02-11T15:44:56.879Z,95917.98
2019-02-11T15:47:46.131Z,95921.03
2019-02-11T15:50:35.041Z,95932.55
2019-02-11T15:53:23.330Z,95935.53
2019-02-11T15:56:12.498Z,95942.31
2019-02-11T15:59:01.646Z,95947.06
2019-02-11T16:01:51.057Z,95955.19
2019-02-11T16:04:39.213Z,95957.73
2019-02-11T16:07:28.157Z,95964.60
2019-02-11T16:10:19.146Z,95965.07
2019-02-11T16:13:08.127Z,95976.21
2019-02-11T16:15:56.663Z,95979.63
2019-02-11T16:18:51.693Z,95983.49
2019-02-11T16:21:35.090Z,95985.97
2019-02-11T16:24:23.792Z,95996.70
2019-02-11T16:27:12.442Z,95997.98
2019-02-11T16:30:01.547Z,96000.19
2019-02-11T16:32:49.923Z,96008.75
2019-02-11T16:35:39.118Z,96007.42
2019-02-11T16:38:27.658Z,96007.47
2019-02-11T16:41:16.417Z,96012.61
2019-02-11T16:44:05.206Z,96019.01
2019-02-11T16:46:54.308Z,96022.46
2019-02-11T16:49:42.678Z,96013.83
2019-02-11T16:52:31.718Z,96000.45
2019-02-11T16:55:20.492Z,96003.02
2019-02-11T16:58:09.760Z,96014.61
2019-02-11T17:00:58.227Z,96024.45
2019-02-11T17:03:47.319Z,96021.44
2019-02-11T17:06:36.584Z,96021.47
2019-02-11T17:09:25.445Z,96031.36
2019-02-11T17:12:15.167Z,96047.68
2019-02-11T17:15:04.692Z,96049.37
2019-02-11T17:17:53.329Z,96056.69
2019-02-11T17:20:42.250Z,96066.57
2019-02-11T17:23:31.012Z,96071.75
2019-02-11T17:26:19.252Z,96071.80
2019-02-11T17:29:08.122Z,96073.55
2019-02-11T17:31:56.398Z,96077.89
2019-02-11T17:34:44.994Z,96081.75
2019-02-11T17:37:33.983Z,96082.59
2019-02-11T17:40:22.452Z,96085.66
2019-02-11T17:43:11.276Z,96098.92
2019-02-11T17:45:59.877Z,96097.27
2019-02-11T17:48:48.008Z,96095.98
2019-02-11T17:51:36.426Z,96108.45
2019-02-11T17:54:25.052Z,96114.03
2019-02-11T17:57:13.884Z,96118.34
2019-02-11T18:00:03.321Z,96114.92
2019-02-11T18:02:51.609Z,96114.07
2019-02-11T18:05:40.267Z,96117.05
2019-02-11T18:08:29.031Z,96120.44
2019-02-11T18:11:17.798Z,96123.89
2019-02-11T18:14:06.716Z,96131.13
2019-02-11T18:16:55.439Z,96135.28
2019-02-11T18:19:44.711Z,96135.80
2019-02-11T18:22:33.546Z,96135.80
2019-02-11T18:25:23.678Z,96138.81
2019-02-11T18:28:12.580Z,96132.74
2019-02-11T18:31:01.584Z,96134.95
2019-02-11T18:33:50.947Z,96142.63
2019-02-11T18:36:40.164Z,96147.78
2019-02-11T18:39:29.354Z,96149.07
2019-02-11T18:42:18.121Z,96140.09
2019-02-11T18:45:09.819Z,96151.23
2019-02-11T18:47:59.380Z,96147.82
2019-02-11T18:50:48.388Z,96155.54
2019-02-11T18:53:37.749Z,96162.30
2019-02-11T18:56:27.254Z,96176.48
2019-02-11T18:59:24.227Z,96182.13
2019-02-11T19:02:06.469Z,96177.41
2019-02-11T19:04:55.306Z,96175.69
2019-02-11T19:07:44.353Z,96174.31
2019-02-11T19:10:33.481Z,96177.73
2019-02-11T19:13:22.383Z,96183.24
2019-02-11T19:16:11.201Z,96186.20
2019-02-11T19:19:00.317Z,96196.91
2019-02-11T19:21:49.683Z,96193.53
2019-02-11T19:24:38.447Z,96201.64
2019-02-11T19:27:27.641Z,96213.27
2019-02-11T19:30:21.346Z,96223.97
2019-02-11T19:33:10.203Z,96222.68
2019-02-11T19:35:59.441Z,96223.56
2019-02-11T19:38:48.254Z,96231.64
2019-02-11T19:41:37.649Z,96230.00
2019-02-11T19:44:26.434Z,96234.95
2019-02-11T19:47:15.839Z,96229.11
2019-02-11T19:50:06.102Z,96239.45
2019-02-11T19:52:55.374Z,96234.66
2019-02-11T19:55:43.847Z,96238.06
2019-02-11T19:58:32.323Z,96246.14
2019-02-11T20:01:21.062Z,96246.94
2019-02-11T20:04:10.313Z,96257.66
2019-02-11T20:06:58.514Z,96261.17
2019-02-11T20:09:47.173Z,96265.88
2019-02-11T20:12:35.554Z,96268.91
2019-02-11T20:15:25.251Z,96280.78
2019-02-11T20:18:14.572Z,96288.45
2019-02-11T20:21:03.827Z,96294.98
2019-02-11T20:23:52.418Z,96300.91
2019-02-11T20:26:41.370Z,96294.83
2019-02-11T20:29:29.959Z,96300.72
2019-02-11T20:32:18.707Z,96304.46
2019-02-11T20:35:08.102Z,96313.56
2019-02-11T20:37:58.806Z,96314.02
2019-02-11T20:40:47.239Z,96311.00
2019-02-11T20:43:36.537Z,96316.64
2019-02-11T20:46:25.987Z,96309.77
2019-02-11T20:49:14.644Z,96315.41
2019-02-11T20:52:02.981Z,96315.41
2019-02-11T20:54:52.258Z,96319.81
2019-02-11T20:57:41.592Z,96319.85
2019-02-11T21:00:30.702Z,96319.86
2019-02-11T21:03:19.687Z,96321.55
2019-02-11T21:06:10.152Z,96323.67
2019-02-11T21:08:58.468Z,96328.52
2019-02-11T21:11:47.735Z,96336.64
2019-02-11T21:14:36.625Z,96333.72
2019-02-11T21:17:25.552Z,96347.12
2019-02-11T21:20:20.809Z,96345.34
2019-02-11T21:23:10.739Z,96344.06
2019-02-11T21:25:59.967Z,96358.22
2019-02-11T21:28:49.472Z,96362.12
2019-02-11T21:31:38.778Z,96366.78
2019-02-11T21:34:27.784Z,96371.03
2019-02-11T21:37:16.953Z,96384.33
2019-02-11T21:40:05.708Z,96388.15
2019-02-11T21:42:54.617Z,96389.77
2019-02-11T21:45:43.570Z,96405.10
2019-02-11T21:48:32.396Z,96425.28
2019-02-11T21:51:21.358Z,96427.80
2019-02-11T21:54:10.128Z,96430.72
2019-02-11T21:56:58.528Z,96438.37
2019-02-11T21:59:47.532Z,96433.01
2019-02-11T22:02:36.024Z,96442.58
2019-02-11T22:05:24.583Z,96452.07
2019-02-11T22:08:13.154Z,96449.00
2019-02-11T22:11:02.256Z,96458.06
2019-02-11T22:13:50.759Z,96457.42
2019-02-11T22:16:39.464Z,96450.94
2019-02-11T22:19:28.212Z,96449.66
2019-02-11T22:22:16.361Z,96450.17
2019-02-11T22:25:05.357Z,96449.88
2019-02-11T22:27:54.629Z,96448.16
2019-02-11T22:30:43.242Z,96448.54
2019-02-11T22:33:31.363Z,96442.05
2019-02-11T22:36:19.951Z,96441.28
2019-02-11T22:39:09.711Z,96438.25
2019-02-11T22:41:58.719Z,96443.78
2019-02-11T22:44:47.552Z,96441.60
2019-02-11T22:47:36.672Z,96440.97
2019-02-11T22:50:25.310Z,96433.70
2019-02-11T22:53:14.479Z,96431.66
2019-02-11T22:56:03.728Z,96432.59
2019-02-11T22:58:52.654Z,96429.19
2019-02-11T23:01:41.135Z,96434.34
2019-02-11T23:04:29.877Z,96432.59
2019-02-11T23:07:18.772Z,96443.29
2019-02-11T23:10:07.825Z,96454.41
2019-02-11T23:12:55.923Z,96462.63
2019-02-11T23:15:45.006Z,96466.03
2019-02-11T23:18:33.432Z,96466.55
2019-02-11T23:21:22.667Z,96469.83
2019-02-11T23:24:11.207Z,96475.62
2019-02-11T23:27:00.478Z,96484.70
2019-02-11T23:29:48.510Z,96493.36
2019-02-11T23:32:37.384Z,96489.44
2019-02-11T23:35:26.499Z,96491.06
2019-02-11T23:38:15.335Z,96499.73
2019-02-11T23:41:04.112Z,96488.69
2019-02-11T23:43:52.758Z,96485.71
2019-02-11T23:46:41.632Z,96490.02
2019-02-11T23:49:30.486Z,96493.83
2019-02-11T23:52:19.711Z,96491.23
2019-02-11T23:55:09.023Z,96496.02
2019-02-11T23:57:58.102Z,96497.69
